createdAt,value
2023-05-02T00:01:14.938Z,58.50
2023-05-02T00:03:42.777Z,58.50
2023-05-02T00:06:09.812Z,58.50
2023-05-02T00:08:36.483Z,58.50
2023-05-02T00:11:03.145Z,58.50
2023-05-02T00:13:29.736Z,58.50
2023-05-02T00:15:56.305Z,58.50
2023-05-02T00:18:24.126Z,58.50
2023-05-02T00:20:50.871Z,58.60
2023-05-02T00:23:17.523Z,58.60
2023-05-02T00:25:45.926Z,58.50
2023-05-02T00:28:13.719Z,58.60
2023-05-02T00:30:47.577Z,58.50
2023-05-02T00:33:15.265Z,58.60
2023-05-02T00:35:42.194Z,58.50
2023-05-02T00:38:09.125Z,58.60
2023-05-02T00:40:46.622Z,58.60
2023-05-02T00:43:13.979Z,58.60
2023-05-02T00:45:41.949Z,58.60
2023-05-02T00:48:09.299Z,58.60
2023-05-02T00:50:43.162Z,58.60
2023-05-02T00:53:10.841Z,58.60
2023-05-02T00:55:37.861Z,58.60
2023-05-02T00:58:08.686Z,58.60
2023-05-02T01:00:56.506Z,58.50
2023-05-02T01:03:34.943Z,58.50
2023-05-02T01:06:29.241Z,58.50
2023-05-02T01:09:14.224Z,58.60
2023-05-02T01:12:08.732Z,58.60
2023-05-02T01:14:41.727Z,58.60
2023-05-02T01:17:12.237Z,58.60
2023-05-02T01:19:43.524Z,58.60
2023-05-02T01:22:11.678Z,58.60
2023-05-02T01:24:50.011Z,58.60
2023-05-02T01:27:34.319Z,58.60
2023-05-02T01:30:03.339Z,58.60
2023-05-02T01:32:33.302Z,58.60
2023-05-02T01:35:01.643Z,58.60
2023-05-02T01:37:29.236Z,58.60
2023-05-02T01:39:57.037Z,58.60
2023-05-02T01:42:25.159Z,58.60
2023-05-02T01:44:55.560Z,58.60
2023-05-02T01:47:24.188Z,58.60
2023-05-02T01:49:51.097Z,58.60
2023-05-02T01:52:21.758Z,58.60
2023-05-02T01:54:50.857Z,58.60
2023-05-02T01:57:18.684Z,58.60
2023-05-02T01:59:47.040Z,58.60
2023-05-02T02:02:15.520Z,58.60
2023-05-02T02:04:43.976Z,58.60
2023-05-02T02:07:13.403Z,58.60
2023-05-02T02:09:40.757Z,58.60
2023-05-02T02:12:24.362Z,59.20
2023-05-02T02:14:56.935Z,58.60
2023-05-02T02:17:32.241Z,58.60
2023-05-02T02:20:03.206Z,58.60
2023-05-02T02:22:34.476Z,58.60
2023-05-02T02:25:01.689Z,58.60
2023-05-02T02:27:28.481Z,58.60
2023-05-02T02:29:55.209Z,58.60
2023-05-02T02:32:21.890Z,58.60
2023-05-02T02:34:48.891Z,58.60
2023-05-02T02:37:22.168Z,58.60
2023-05-02T02:40:13.664Z,58.60
2023-05-02T02:42:59.158Z,58.60
2023-05-02T02:45:31.582Z,58.60
2023-05-02T02:47:58.182Z,58.60
2023-05-02T02:50:32.647Z,59.20
2023-05-02T02:53:02.564Z,58.60
2023-05-02T02:55:53.339Z,58.60
2023-05-02T02:58:28.578Z,58.60
2023-05-02T03:00:55.948Z,58.60
2023-05-02T03:03:28.897Z,58.60
2023-05-02T03:05:59.150Z,58.60
2023-05-02T03:08:25.952Z,58.60
2023-05-02T03:10:52.542Z,58.60
2023-05-02T03:13:19.228Z,58.60
2023-05-02T03:15:52.085Z,58.60
2023-05-02T03:18:19.225Z,58.60
2023-05-02T03:20:46.071Z,58.60
2023-05-02T03:23:12.659Z,58.50
2023-05-02T03:25:39.546Z,58.60
2023-05-02T03:28:06.164Z,58.60
2023-05-02T03:30:32.822Z,59.10
2023-05-02T03:33:00.476Z,58.60
2023-05-02T03:35:27.179Z,58.50
2023-05-02T03:37:53.778Z,58.50
2023-05-02T03:40:21.855Z,58.60
2023-05-02T03:42:48.756Z,58.60
2023-05-02T03:45:15.392Z,58.60
2023-05-02T03:47:42.162Z,58.50
2023-05-02T03:50:09.137Z,58.60
2023-05-02T03:52:35.852Z,58.60
2023-05-02T03:55:02.517Z,58.70
2023-05-02T03:57:32.346Z,58.50
2023-05-02T03:59:59.268Z,58.50
2023-05-02T04:02:26.433Z,58.60
2023-05-02T04:04:53.136Z,58.60
2023-05-02T04:07:19.870Z,58.60
2023-05-02T04:09:46.713Z,58.50
2023-05-02T04:12:15.293Z,58.60
2023-05-02T04:14:41.915Z,58.60
2023-05-02T04:17:08.673Z,58.60
2023-05-02T04:19:35.608Z,58.60
2023-05-02T04:22:03.486Z,58.60
2023-05-02T04:24:30.078Z,58.60
2023-05-02T04:26:56.629Z,58.60
2023-05-02T04:29:23.295Z,54.90
2023-05-02T04:31:51.087Z,56.00
2023-05-02T04:34:17.833Z,56.90
2023-05-02T04:36:48.021Z,57.80
2023-05-02T04:39:14.646Z,58.20
2023-05-02T04:41:41.651Z,58.60
2023-05-02T04:44:08.303Z,59.00
2023-05-02T04:46:34.988Z,59.40
2023-05-02T04:49:02.077Z,58.00
2023-05-02T04:51:29.119Z,57.00
2023-05-02T04:53:55.717Z,56.70
2023-05-02T04:56:22.501Z,56.80
2023-05-02T04:58:49.168Z,57.00
2023-05-02T05:01:16.224Z,57.10
2023-05-02T05:03:43.329Z,57.70
2023-05-02T05:06:10.128Z,58.10
2023-05-02T05:08:37.213Z,58.60
2023-05-02T05:11:05.071Z,58.50
2023-05-02T05:13:31.898Z,58.80
2023-05-02T05:15:59.102Z,59.10
2023-05-02T05:18:25.881Z,58.90
2023-05-02T05:20:52.616Z,58.80
2023-05-02T05:23:19.208Z,58.90
2023-05-02T05:25:46.047Z,58.80
2023-05-02T05:28:12.766Z,58.80
2023-05-02T05:30:39.704Z,58.90
2023-05-02T05:33:06.378Z,59.00
2023-05-02T05:35:33.612Z,59.00
2023-05-02T05:38:00.338Z,59.10
2023-05-02T05:40:27.109Z,59.10
2023-05-02T05:42:53.793Z,59.20
2023-05-02T05:45:20.469Z,59.20
2023-05-02T05:47:47.137Z,59.40
2023-05-02T05:50:13.807Z,59.50
2023-05-02T05:52:41.002Z,59.70
2023-05-02T05:55:08.036Z,59.80
2023-05-02T05:57:34.671Z,60.00
2023-05-02T06:00:01.715Z,60.20
2023-05-02T06:02:28.814Z,60.30
2023-05-02T06:04:55.698Z,60.10
2023-05-02T06:07:22.455Z,60.00
2023-05-02T06:09:49.053Z,60.00
2023-05-02T06:12:16.417Z,59.80
2023-05-02T06:14:43.151Z,59.90
2023-05-02T06:17:09.783Z,59.80
2023-05-02T06:19:36.362Z,59.80
2023-05-02T06:22:03.023Z,59.80
2023-05-02T06:24:29.761Z,59.80
2023-05-02T06:26:56.355Z,59.90
2023-05-02T06:29:22.931Z,59.80
2023-05-02T06:31:51.285Z,59.70
2023-05-02T06:34:18.008Z,59.70
2023-05-02T06:36:44.613Z,59.70
2023-05-02T06:39:11.579Z,59.70
2023-05-02T06:41:38.266Z,59.70
2023-05-02T06:44:05.094Z,59.60
2023-05-02T06:46:32.013Z,59.70
2023-05-02T06:48:58.774Z,59.60
2023-05-02T06:51:25.871Z,59.60
2023-05-02T06:53:52.571Z,59.50
2023-05-02T06:56:19.387Z,59.60
2023-05-02T06:58:46.107Z,59.60
2023-05-02T07:01:12.932Z,59.50
2023-05-02T07:03:39.762Z,59.50
2023-05-02T07:06:06.480Z,59.60
2023-05-02T07:08:33.272Z,59.50
2023-05-02T07:10:59.926Z,59.50
2023-05-02T07:13:26.598Z,60.00
2023-05-02T07:15:54.046Z,59.50
2023-05-02T07:18:21.338Z,59.40
2023-05-02T07:20:48.171Z,59.30
2023-05-02T07:23:14.785Z,59.30
2023-05-02T07:25:41.497Z,59.30
2023-05-02T07:28:08.550Z,59.30
2023-05-02T07:30:35.240Z,59.20
2023-05-02T07:33:02.132Z,59.30
2023-05-02T07:35:28.861Z,59.30
2023-05-02T07:37:55.614Z,59.20
2023-05-02T07:40:22.320Z,59.20
2023-05-02T07:42:50.675Z,59.30
2023-05-02T07:45:17.564Z,59.20
2023-05-02T07:47:46.515Z,59.20
2023-05-02T07:50:13.242Z,59.20
2023-05-02T07:52:39.854Z,59.20
2023-05-02T07:55:07.557Z,59.10
2023-05-02T07:57:34.204Z,59.20
2023-05-02T08:00:01.017Z,59.20
2023-05-02T08:02:28.881Z,59.20
2023-05-02T08:04:55.669Z,59.20
2023-05-02T08:07:22.345Z,59.20
2023-05-02T08:09:48.949Z,59.20
2023-05-02T08:12:15.642Z,59.20
2023-05-02T08:14:42.237Z,59.10
2023-05-02T08:17:08.833Z,59.10
2023-05-02T08:19:35.572Z,59.10
2023-05-02T08:22:02.316Z,59.10
2023-05-02T08:24:29.377Z,59.10
2023-05-02T08:26:56.015Z,59.10
2023-05-02T08:29:24.143Z,59.00
2023-05-02T08:31:50.884Z,59.00
2023-05-02T08:34:17.558Z,59.00
2023-05-02T08:36:44.265Z,58.90
2023-05-02T08:39:11.646Z,58.90
2023-05-02T08:41:38.689Z,59.10
2023-05-02T08:44:07.687Z,59.00
2023-05-02T08:46:37.033Z,58.90
2023-05-02T08:49:05.201Z,58.90
2023-05-02T08:51:32.721Z,58.90
2023-05-02T08:54:01.120Z,58.90
2023-05-02T08:56:27.749Z,58.90
2023-05-02T08:58:54.387Z,58.90
2023-05-02T09:01:24.380Z,58.90
2023-05-02T09:03:52.273Z,58.90
2023-05-02T09:06:21.124Z,58.90
2023-05-02T09:08:49.566Z,58.90
2023-05-02T09:11:17.121Z,58.80
2023-05-02T09:13:47.759Z,58.90
2023-05-02T09:16:16.668Z,58.80
2023-05-02T09:18:47.909Z,58.80
2023-05-02T09:21:19.727Z,58.70
2023-05-02T09:23:55.923Z,58.80
2023-05-02T09:26:33.485Z,58.80
2023-05-02T09:29:01.677Z,58.80
2023-05-02T09:31:54.404Z,58.80
2023-05-02T09:34:21.926Z,58.70
2023-05-02T09:36:56.214Z,58.70
2023-05-02T09:39:28.858Z,58.70
2023-05-02T09:41:56.570Z,58.70
2023-05-02T09:44:36.059Z,58.70
2023-05-02T09:47:02.865Z,58.70
2023-05-02T09:49:40.836Z,58.70
2023-05-02T09:52:18.236Z,58.60
2023-05-02T09:54:46.784Z,58.70
2023-05-02T09:57:13.707Z,58.70
2023-05-02T09:59:41.008Z,58.60
2023-05-02T10:02:11.209Z,58.60
2023-05-02T10:04:39.437Z,58.60
2023-05-02T10:07:10.223Z,58.60
2023-05-02T10:09:40.824Z,58.60
2023-05-02T10:12:08.375Z,58.60
2023-05-02T10:14:43.415Z,58.60
2023-05-02T10:17:22.045Z,58.60
2023-05-02T10:19:57.154Z,58.60
2023-05-02T10:22:24.907Z,58.60
2023-05-02T10:24:53.535Z,58.60
2023-05-02T10:27:20.334Z,58.60
2023-05-02T10:29:47.450Z,58.60
2023-05-02T10:32:15.162Z,58.60
2023-05-02T10:34:42.132Z,58.50
2023-05-02T10:37:08.826Z,58.50
2023-05-02T10:39:35.685Z,58.50
2023-05-02T10:42:04.638Z,58.50
2023-05-02T10:44:35.855Z,58.50
2023-05-02T10:47:25.133Z,58.50
2023-05-02T10:49:52.571Z,58.50
2023-05-02T10:52:27.444Z,58.50
2023-05-02T10:55:20.576Z,58.50
2023-05-02T10:58:05.403Z,58.50
2023-05-02T11:00:33.771Z,58.50
2023-05-02T11:03:01.899Z,58.40
2023-05-02T11:05:29.034Z,58.40
2023-05-02T11:08:27.735Z,58.40
2023-05-02T11:10:54.371Z,58.40
2023-05-02T11:13:48.928Z,58.40
2023-05-02T11:16:15.687Z,58.40
2023-05-02T11:19:01.284Z,58.40
2023-05-02T11:21:29.377Z,58.40
2023-05-02T11:24:33.729Z,58.40
2023-05-02T11:27:31.876Z,58.40
2023-05-02T11:30:09.107Z,58.40
2023-05-02T11:33:04.723Z,58.40
2023-05-02T11:35:32.143Z,58.40
2023-05-02T11:38:04.825Z,58.40
2023-05-02T11:40:32.540Z,58.40
2023-05-02T11:43:01.193Z,58.40
2023-05-02T11:45:37.778Z,58.40
2023-05-02T11:48:08.704Z,58.30
2023-05-02T11:50:52.231Z,58.40
2023-05-02T11:53:24.142Z,58.30
2023-05-02T11:55:53.490Z,58.30
2023-05-02T11:58:22.799Z,58.30
2023-05-02T12:00:51.456Z,58.30
2023-05-02T12:03:28.259Z,58.30
2023-05-02T12:05:56.034Z,58.30
2023-05-02T12:08:27.881Z,58.30
2023-05-02T12:10:55.878Z,58.30
2023-05-02T12:13:25.000Z,58.30
2023-05-02T12:15:53.638Z,58.30
2023-05-02T12:18:26.982Z,58.30
2023-05-02T12:20:55.433Z,58.30
2023-05-02T12:23:24.649Z,58.30
2023-05-02T12:25:51.318Z,58.30
2023-05-02T12:28:19.635Z,58.30
2023-05-02T12:30:49.659Z,58.30
2023-05-02T12:33:17.321Z,58.30
2023-05-02T12:35:47.769Z,58.30
2023-05-02T12:38:21.054Z,58.20
2023-05-02T12:40:57.799Z,58.20
2023-05-02T12:43:24.639Z,58.20
2023-05-02T12:46:08.783Z,58.20
2023-05-02T12:48:35.388Z,58.10
2023-05-02T12:51:02.025Z,58.20
2023-05-02T12:53:42.069Z,58.10
2023-05-02T12:56:08.987Z,58.20
2023-05-02T12:58:43.751Z,58.10
2023-05-02T13:01:11.006Z,58.20
2023-05-02T13:03:38.566Z,58.20
2023-05-02T13:06:05.747Z,58.10
2023-05-02T13:08:34.406Z,58.10
2023-05-02T13:11:02.838Z,58.10
2023-05-02T13:13:30.529Z,58.00
2023-05-02T13:15:57.197Z,58.00
2023-05-02T13:18:23.968Z,58.00
2023-05-02T13:20:50.734Z,58.00
2023-05-02T13:23:17.302Z,58.10
2023-05-02T13:25:43.910Z,58.00
2023-05-02T13:28:10.586Z,58.10
2023-05-02T13:30:37.269Z,58.00
2023-05-02T13:33:04.383Z,58.10
2023-05-02T13:35:32.656Z,58.00
2023-05-02T13:38:00.006Z,58.00
2023-05-02T13:40:26.881Z,57.90
2023-05-02T13:42:53.567Z,57.90
2023-05-02T13:45:20.472Z,57.90
2023-05-02T13:47:47.327Z,57.90
2023-05-02T13:50:14.058Z,57.90
2023-05-02T13:52:40.699Z,57.90
2023-05-02T13:55:08.052Z,57.90
2023-05-02T13:57:34.720Z,57.90
2023-05-02T14:00:01.525Z,57.90
2023-05-02T14:02:28.833Z,57.90
2023-05-02T14:04:55.908Z,57.90
2023-05-02T14:07:22.561Z,58.50
2023-05-02T14:09:49.203Z,57.90
2023-05-02T14:12:15.933Z,57.90
2023-05-02T14:14:42.564Z,57.90
2023-05-02T14:17:09.175Z,57.80
2023-05-02T14:19:35.760Z,58.10
2023-05-02T14:22:02.344Z,57.90
2023-05-02T14:24:28.927Z,57.90
2023-05-02T14:26:55.845Z,57.80
2023-05-02T14:29:22.532Z,57.80
2023-05-02T14:31:49.186Z,57.80
2023-05-02T14:34:15.884Z,57.80
2023-05-02T14:36:42.580Z,57.90
2023-05-02T14:39:09.181Z,57.80
2023-05-02T14:41:36.336Z,53.20
2023-05-02T14:44:03.793Z,52.30
2023-05-02T14:46:30.664Z,52.00
2023-05-02T14:48:57.344Z,52.30
2023-05-02T14:51:24.079Z,52.10
2023-05-02T14:53:50.986Z,54.00
2023-05-02T14:56:18.711Z,54.50
2023-05-02T14:58:45.838Z,55.20
2023-05-02T15:01:22.617Z,55.30
2023-05-02T15:04:05.355Z,55.20
2023-05-02T15:06:33.877Z,54.40
2023-05-02T15:09:01.476Z,50.60
2023-05-02T15:11:28.242Z,53.60
2023-05-02T15:13:55.887Z,53.60
2023-05-02T15:16:24.111Z,54.40
2023-05-02T15:18:50.763Z,54.50
2023-05-02T15:21:17.399Z,54.90
2023-05-02T15:23:44.272Z,55.20
2023-05-02T15:26:10.987Z,55.50
2023-05-02T15:28:37.624Z,55.70
2023-05-02T15:31:04.655Z,55.70
2023-05-02T15:33:31.476Z,55.80
2023-05-02T15:35:58.662Z,55.90
2023-05-02T15:38:25.940Z,55.70
2023-05-02T15:40:57.484Z,55.50
2023-05-02T15:43:24.480Z,55.50
2023-05-02T15:45:52.800Z,55.50
2023-05-02T15:48:19.915Z,55.70
2023-05-02T15:50:47.439Z,55.80
2023-05-02T15:53:17.550Z,56.00
2023-05-02T15:55:45.865Z,56.00
2023-05-02T15:58:13.682Z,56.00
2023-05-02T16:00:40.502Z,56.10
2023-05-02T16:03:07.313Z,56.30
2023-05-02T16:05:34.881Z,56.30
2023-05-02T16:08:02.038Z,56.40
2023-05-02T16:10:29.007Z,56.50
2023-05-02T16:12:55.914Z,56.50
2023-05-02T16:15:23.076Z,56.50
2023-05-02T16:17:50.733Z,56.50
2023-05-02T16:20:18.045Z,56.60
2023-05-02T16:22:48.508Z,56.60
2023-05-02T16:25:16.455Z,56.60
2023-05-02T16:27:43.482Z,56.60
2023-05-02T16:30:10.943Z,56.60
2023-05-02T16:32:37.849Z,56.70
2023-05-02T16:35:07.257Z,56.70
2023-05-02T16:37:36.739Z,56.70
2023-05-02T16:40:05.387Z,56.70
2023-05-02T16:42:32.954Z,56.70
2023-05-02T16:44:59.826Z,56.70
2023-05-02T16:47:27.970Z,56.80
2023-05-02T16:49:59.246Z,56.80
2023-05-02T16:52:27.021Z,56.80
2023-05-02T16:54:53.857Z,56.80
2023-05-02T16:57:21.606Z,56.80
2023-05-02T16:59:50.053Z,56.90
2023-05-02T17:02:17.792Z,57.00
2023-05-02T17:04:44.591Z,57.10
2023-05-02T17:07:14.428Z,57.00
2023-05-02T17:09:41.822Z,57.00
2023-05-02T17:12:12.511Z,57.10
2023-05-02T17:14:42.369Z,57.10
2023-05-02T17:17:09.638Z,57.10
2023-05-02T17:19:36.695Z,57.00
2023-05-02T17:22:05.083Z,56.90
2023-05-02T17:24:32.375Z,57.00
2023-05-02T17:26:59.182Z,57.00
2023-05-02T17:29:25.847Z,57.00
2023-05-02T17:31:52.551Z,57.00
2023-05-02T17:34:19.229Z,56.90
2023-05-02T17:36:46.349Z,56.80
2023-05-02T17:39:13.405Z,56.90
2023-05-02T17:41:40.165Z,56.90
2023-05-02T17:44:07.053Z,56.80
2023-05-02T17:46:33.780Z,56.80
2023-05-02T17:49:00.968Z,56.80
2023-05-02T17:51:28.134Z,56.80
2023-05-02T17:53:54.882Z,56.80
2023-05-02T17:56:21.624Z,56.80
2023-05-02T17:58:48.502Z,56.80
2023-05-02T18:01:15.518Z,56.90
2023-05-02T18:03:42.457Z,56.80
2023-05-02T18:06:09.329Z,56.90
2023-05-02T18:08:36.084Z,57.00
2023-05-02T18:11:03.459Z,52.50
2023-05-02T18:13:30.956Z,49.00
2023-05-02T18:15:58.674Z,50.60
2023-05-02T18:18:25.614Z,51.80
2023-05-02T18:20:52.344Z,52.50
2023-05-02T18:23:18.947Z,52.80
2023-05-02T18:25:45.601Z,52.90
2023-05-02T18:28:13.307Z,53.00
2023-05-02T18:30:40.363Z,53.10
2023-05-02T18:33:08.077Z,53.40
2023-05-02T18:35:36.336Z,53.40
2023-05-02T18:38:06.137Z,53.50
2023-05-02T18:40:32.791Z,53.60
2023-05-02T18:42:59.369Z,53.70
2023-05-02T18:45:26.287Z,53.70
2023-05-02T18:47:52.974Z,53.60
2023-05-02T18:50:19.766Z,53.60
2023-05-02T18:52:46.330Z,49.50
2023-05-02T18:55:12.960Z,48.80
2023-05-02T18:57:39.679Z,50.40
2023-05-02T19:00:06.923Z,51.30
2023-05-02T19:02:33.699Z,51.90
2023-05-02T19:05:00.960Z,52.10
2023-05-02T19:07:27.936Z,52.20
2023-05-02T19:09:54.528Z,52.20
2023-05-02T19:12:21.218Z,51.90
2023-05-02T19:14:50.230Z,51.90
2023-05-02T19:17:16.975Z,52.80
2023-05-02T19:19:43.736Z,52.40
2023-05-02T19:22:10.547Z,52.70
2023-05-02T19:24:37.200Z,53.10
2023-05-02T19:27:06.663Z,53.40
2023-05-02T19:29:34.050Z,53.60
2023-05-02T19:32:00.892Z,53.80
2023-05-02T19:34:28.163Z,53.90
2023-05-02T19:36:55.123Z,54.00
2023-05-02T19:39:21.759Z,54.10
2023-05-02T19:41:49.962Z,54.00
2023-05-02T19:44:17.943Z,54.20
2023-05-02T19:46:44.578Z,54.30
2023-05-02T19:49:11.244Z,54.40
2023-05-02T19:51:38.035Z,54.50
2023-05-02T19:54:04.788Z,54.70
2023-05-02T19:56:31.398Z,54.80
2023-05-02T19:58:58.686Z,55.00
2023-05-02T20:01:26.990Z,55.00
2023-05-02T20:03:54.806Z,55.10
2023-05-02T20:06:21.516Z,55.20
2023-05-02T20:08:48.245Z,55.20
2023-05-02T20:11:14.889Z,55.20
2023-05-02T20:13:41.538Z,55.30
2023-05-02T20:16:08.372Z,55.40
2023-05-02T20:18:35.005Z,55.40
2023-05-02T20:21:01.734Z,55.60
2023-05-02T20:23:28.455Z,55.60
2023-05-02T20:25:55.146Z,55.70
2023-05-02T20:28:22.944Z,55.70
2023-05-02T20:30:49.592Z,55.80
2023-05-02T20:33:17.094Z,55.70
2023-05-02T20:35:45.158Z,55.80
2023-05-02T20:38:11.967Z,54.30
2023-05-02T20:40:42.478Z,54.50
2023-05-02T20:43:09.164Z,55.40
2023-05-02T20:45:35.973Z,56.00
2023-05-02T20:48:02.702Z,56.10
2023-05-02T20:50:29.448Z,56.10
2023-05-02T20:52:56.464Z,56.10
2023-05-02T20:55:23.314Z,56.10
2023-05-02T20:57:53.183Z,56.10
2023-05-02T21:00:22.394Z,56.10
2023-05-02T21:02:49.566Z,56.10
2023-05-02T21:05:16.666Z,56.20
2023-05-02T21:07:44.613Z,56.20
2023-05-02T21:10:11.399Z,56.20
2023-05-02T21:12:38.162Z,56.30
2023-05-02T21:15:05.646Z,56.30
2023-05-02T21:17:32.316Z,56.40
2023-05-02T21:19:59.059Z,56.40
2023-05-02T21:22:26.893Z,57.00
2023-05-02T21:24:55.581Z,56.40
2023-05-02T21:27:22.838Z,56.40
2023-05-02T21:29:49.760Z,56.50
2023-05-02T21:32:16.357Z,57.10
2023-05-02T21:34:42.978Z,56.50
2023-05-02T21:37:09.639Z,56.50
2023-05-02T21:39:37.378Z,56.50
2023-05-02T21:42:04.997Z,56.50
2023-05-02T21:44:31.593Z,56.60
2023-05-02T21:46:58.190Z,56.50
2023-05-02T21:49:24.857Z,56.50
2023-05-02T21:51:51.484Z,56.50
2023-05-02T21:54:18.144Z,56.50
2023-05-02T21:56:44.794Z,56.60
2023-05-02T21:59:11.441Z,56.70
2023-05-02T22:01:38.084Z,56.70
2023-05-02T22:04:05.020Z,56.70
2023-05-02T22:06:32.653Z,56.60
2023-05-02T22:08:59.300Z,56.70
2023-05-02T22:11:28.244Z,56.70
2023-05-02T22:13:54.867Z,56.70
2023-05-02T22:16:21.574Z,56.70
2023-05-02T22:18:49.576Z,56.70
2023-05-02T22:21:16.373Z,56.70
2023-05-02T22:23:42.952Z,56.70
2023-05-02T22:26:09.780Z,56.80
2023-05-02T22:28:36.381Z,56.80
2023-05-02T22:31:03.251Z,56.80
2023-05-02T22:33:30.070Z,56.80
2023-05-02T22:35:56.913Z,56.80
2023-05-02T22:38:23.738Z,56.80
2023-05-02T22:40:50.396Z,56.80
2023-05-02T22:43:17.492Z,57.40
2023-05-02T22:45:44.162Z,56.80
2023-05-02T22:48:11.728Z,56.80
2023-05-02T22:50:38.642Z,56.80
2023-05-02T22:53:05.460Z,56.90
2023-05-02T22:55:32.073Z,56.90
2023-05-02T22:57:58.811Z,56.90
2023-05-02T23:00:25.426Z,56.90
2023-05-02T23:02:52.234Z,56.90
2023-05-02T23:05:19.374Z,56.90
2023-05-02T23:07:45.972Z,57.00
2023-05-02T23:10:12.616Z,57.00
2023-05-02T23:12:39.969Z,57.00
2023-05-02T23:15:07.652Z,57.00
2023-05-02T23:17:40.431Z,57.00
2023-05-02T23:20:12.248Z,57.00
2023-05-02T23:22:46.067Z,57.00
2023-05-02T23:25:14.499Z,57.00
2023-05-02T23:27:41.143Z,57.00
2023-05-02T23:30:08.610Z,57.10
2023-05-02T23:32:36.171Z,57.00
2023-05-02T23:35:04.085Z,57.10
2023-05-02T23:37:30.770Z,57.10
2023-05-02T23:39:58.133Z,57.10
2023-05-02T23:42:24.852Z,57.10
2023-05-02T23:44:53.663Z,57.10
2023-05-02T23:47:21.870Z,57.10
2023-05-02T23:49:48.681Z,57.10
2023-05-02T23:52:15.319Z,57.10
2023-05-02T23:54:41.942Z,57.10
2023-05-02T23:57:09.278Z,57.10
2023-05-02T23:59:35.883Z,57.20
